Clarendon, Vermont
Current Conditions -  °F | °C
As of 4:35 PM on Monday 24 Nov 2014 (Local Time) from KRUT Reporting Station
Scattered Clouds Scattered Clouds  
Wind Chill: 64°   Ceiling: Unl
Heat Index: 64°   Visibility: 10mi
Dew Point: 52°   Wind: 12mph
Humidity: 64%   Direction: 180°S
Pressure: 29.46"   Gusts: NA
Location:  43.5396°N, 72.9631°W
Report Text: KRUT 242135Z 18010KT 10SM SCT050 18/11 A2946 RMK AO1
Loading
Personal Weather Stations






























Interactive Weather Map New forecast layout! Learn more

10-Day Weather Forecast

Advertisements
Track Severe Weather on mobile